sensor_id;sensor_type;location;lat;lon;timestamp;pressure;altitude;pressure_sealevel;temperature;humidity
40948;BME280;49382;-25.924;28.194;2023-01-15T00:01:21;85336.57;;;22.95;33.79
40948;BME280;49382;-25.924;28.194;2023-01-15T00:03:43;85334.72;;;25.24;31.40
40948;BME280;49382;-25.924;28.194;2023-01-15T00:06:09;85332.01;;;25.65;29.59
40948;BME280;49382;-25.924;28.194;2023-01-15T00:08:35;85330.91;;;24.33;31.97
40948;BME280;49382;-25.924;28.194;2023-01-15T00:11:03;85329.87;;;24.47;31.13
40948;BME280;49382;-25.924;28.194;2023-01-15T00:13:26;85330.12;;;25.58;29.36
40948;BME280;49382;-25.924;28.194;2023-01-15T00:15:51;85328.11;;;26.34;28.66
40948;BME280;49382;-25.924;28.194;2023-01-15T00:18:16;85327.31;;;24.64;31.07
40948;BME280;49382;-25.924;28.194;2023-01-15T00:20:42;85324.55;;;24.97;30.65
40948;BME280;49382;-25.924;28.194;2023-01-15T00:23:08;85322.13;;;23.25;32.82
40948;BME280;49382;-25.924;28.194;2023-01-15T00:25:35;85324.31;;;25.68;30.42
40948;BME280;49382;-25.924;28.194;2023-01-15T00:28:00;85324.12;;;23.67;33.07
40948;BME280;49382;-25.924;28.194;2023-01-15T00:30:25;85327.83;;;24.43;32.35
40948;BME280;49382;-25.924;28.194;2023-01-15T00:32:51;85327.25;;;23.75;33.14
40948;BME280;49382;-25.924;28.194;2023-01-15T00:35:18;85328.15;;;23.59;33.78
40948;BME280;49382;-25.924;28.194;2023-01-15T00:37:43;85327.13;;;23.56;33.73
40948;BME280;49382;-25.924;28.194;2023-01-15T00:40:10;85325.67;;;23.53;33.88
40948;BME280;49382;-25.924;28.194;2023-01-15T00:42:34;85328.59;;;24.25;33.03
40948;BME280;49382;-25.924;28.194;2023-01-15T00:45:00;85327.88;;;23.34;34.36
40948;BME280;49382;-25.924;28.194;2023-01-15T00:47:26;85327.33;;;24.63;32.90
40948;BME280;49382;-25.924;28.194;2023-01-15T00:49:52;85328.29;;;24.09;33.85
40948;BME280;49382;-25.924;28.194;2023-01-15T00:52:18;85327.03;;;24.11;33.64
40948;BME280;49382;-25.924;28.194;2023-01-15T00:54:43;85327.52;;;23.78;34.12
40948;BME280;49382;-25.924;28.194;2023-01-15T00:57:09;85330.85;;;23.15;34.61
40948;BME280;49382;-25.924;28.194;2023-01-15T00:59:35;85329.13;;;23.73;34.58
40948;BME280;49382;-25.924;28.194;2023-01-15T01:02:00;85329.10;;;25.20;32.67
40948;BME280;49382;-25.924;28.194;2023-01-15T01:04:26;85328.36;;;24.23;33.38
40948;BME280;49382;-25.924;28.194;2023-01-15T01:06:52;85331.17;;;23.84;33.42
40948;BME280;49382;-25.924;28.194;2023-01-15T01:09:18;85335.64;;;24.20;33.06
40948;BME280;49382;-25.924;28.194;2023-01-15T01:11:44;85338.57;;;24.41;33.69
40948;BME280;49382;-25.924;28.194;2023-01-15T01:14:10;85339.30;;;23.70;34.61
40948;BME280;49382;-25.924;28.194;2023-01-15T01:16:37;85342.71;;;24.58;33.23
40948;BME280;49382;-25.924;28.194;2023-01-15T01:19:03;85340.40;;;25.76;31.57
40948;BME280;49382;-25.924;28.194;2023-01-15T01:21:27;85342.42;;;24.31;34.43
40948;BME280;49382;-25.924;28.194;2023-01-15T01:23:53;85340.57;;;24.98;33.19
40948;BME280;49382;-25.924;28.194;2023-01-15T01:26:19;85344.85;;;22.93;35.45
40948;BME280;49382;-25.924;28.194;2023-01-15T01:28:48;85342.41;;;23.85;34.21
40948;BME280;49382;-25.924;28.194;2023-01-15T01:31:10;85343.95;;;21.82;36.74
40948;BME280;49382;-25.924;28.194;2023-01-15T01:33:36;85343.87;;;24.38;34.11
40948;BME280;49382;-25.924;28.194;2023-01-15T01:36:02;85347.22;;;22.07;36.62
40948;BME280;49382;-25.924;28.194;2023-01-15T01:38:27;85348.06;;;22.73;36.16
40948;BME280;49382;-25.924;28.194;2023-01-15T01:40:53;85348.05;;;23.86;34.39
40948;BME280;49382;-25.924;28.194;2023-01-15T01:43:22;85348.37;;;23.65;34.72
40948;BME280;49382;-25.924;28.194;2023-01-15T01:45:44;85348.36;;;23.82;34.53
40948;BME280;49382;-25.924;28.194;2023-01-15T01:48:10;85348.58;;;22.55;36.31
40948;BME280;49382;-25.924;28.194;2023-01-15T01:50:37;85350.24;;;23.03;35.56
40948;BME280;49382;-25.924;28.194;2023-01-15T01:53:06;85351.61;;;23.40;35.79
40948;BME280;49382;-25.924;28.194;2023-01-15T01:55:28;85349.28;;;23.76;34.63
40948;BME280;49382;-25.924;28.194;2023-01-15T01:57:57;85353.12;;;23.31;35.29
40948;BME280;49382;-25.924;28.194;2023-01-15T02:00:20;85346.18;;;24.48;34.27
40948;BME280;49382;-25.924;28.194;2023-01-15T02:02:46;85348.16;;;24.68;33.50
40948;BME280;49382;-25.924;28.194;2023-01-15T02:05:13;85349.27;;;24.34;33.85
40948;BME280;49382;-25.924;28.194;2023-01-15T02:07:37;85351.14;;;24.23;34.29
40948;BME280;49382;-25.924;28.194;2023-01-15T02:10:03;85354.28;;;23.82;34.66
40948;BME280;49382;-25.924;28.194;2023-01-15T02:12:34;85361.63;;;25.27;33.44
40948;BME280;49382;-25.924;28.194;2023-01-15T02:14:58;85359.45;;;24.70;33.71
40948;BME280;49382;-25.924;28.194;2023-01-15T02:17:26;85362.38;;;24.97;33.59
40948;BME280;49382;-25.924;28.194;2023-01-15T02:19:50;85357.34;;;25.42;32.96
40948;BME280;49382;-25.924;28.194;2023-01-15T02:22:18;85360.35;;;25.12;33.31
40948;BME280;49382;-25.924;28.194;2023-01-15T02:24:45;85360.98;;;25.56;32.73
40948;BME280;49382;-25.924;28.194;2023-01-15T02:27:08;85364.49;;;25.10;33.07
40948;BME280;49382;-25.924;28.194;2023-01-15T02:29:34;85365.91;;;25.40;32.94
40948;BME280;49382;-25.924;28.194;2023-01-15T02:31:55;85368.25;;;25.57;32.53
40948;BME280;49382;-25.924;28.194;2023-01-15T02:34:24;85370.05;;;25.11;33.12
40948;BME280;49382;-25.924;28.194;2023-01-15T02:37:00;85370.85;;;25.27;32.62
40948;BME280;49382;-25.924;28.194;2023-01-15T02:39:15;85375.76;;;25.06;33.43
40948;BME280;49382;-25.924;28.194;2023-01-15T02:41:42;85376.02;;;24.78;33.70
40948;BME280;49382;-25.924;28.194;2023-01-15T02:44:04;85376.32;;;23.91;34.68
40948;BME280;49382;-25.924;28.194;2023-01-15T02:46:32;85380.82;;;23.31;35.41
40948;BME280;49382;-25.924;28.194;2023-01-15T02:48:57;85380.76;;;23.63;35.08
40948;BME280;49382;-25.924;28.194;2023-01-15T02:51:23;85379.90;;;24.50;34.10
40948;BME280;49382;-25.924;28.194;2023-01-15T02:53:48;85384.69;;;24.95;33.35
40948;BME280;49382;-25.924;28.194;2023-01-15T02:56:15;85386.06;;;24.05;34.18
40948;BME280;49382;-25.924;28.194;2023-01-15T02:58:40;85387.05;;;23.94;34.56
40948;BME280;49382;-25.924;28.194;2023-01-15T03:01:08;85389.98;;;25.31;32.98
40948;BME280;49382;-25.924;28.194;2023-01-15T03:03:35;85393.57;;;25.02;33.33
40948;BME280;49382;-25.924;28.194;2023-01-15T03:06:00;85391.58;;;23.92;34.33
40948;BME280;49382;-25.924;28.194;2023-01-15T03:08:21;85396.27;;;24.97;33.36
40948;BME280;49382;-25.924;28.194;2023-01-15T03:10:50;85396.34;;;25.06;33.17
40948;BME280;49382;-25.924;28.194;2023-01-15T03:13:16;85395.90;;;24.93;33.24
40948;BME280;49382;-25.924;28.194;2023-01-15T03:15:44;85402.54;;;25.37;32.72
40948;BME280;49382;-25.924;28.194;2023-01-15T03:18:07;85409.94;;;23.97;34.36
40948;BME280;49382;-25.924;28.194;2023-01-15T03:20:31;85411.46;;;24.75;33.40
40948;BME280;49382;-25.924;28.194;2023-01-15T03:22:58;85415.18;;;24.91;33.39
40948;BME280;49382;-25.924;28.194;2023-01-15T03:25:23;85418.19;;;24.45;33.27
40948;BME280;49382;-25.924;28.194;2023-01-15T03:27:46;85418.66;;;24.42;33.49
40948;BME280;49382;-25.924;28.194;2023-01-15T03:30:15;85425.76;;;25.01;32.67
40948;BME280;49382;-25.924;28.194;2023-01-15T03:32:38;85428.65;;;23.45;34.53
40948;BME280;49382;-25.924;28.194;2023-01-15T03:35:06;85431.13;;;24.42;33.49
40948;BME280;49382;-25.924;28.194;2023-01-15T03:37:31;85429.79;;;23.54;34.49
40948;BME280;49382;-25.924;28.194;2023-01-15T03:39:56;85433.14;;;25.33;32.66
40948;BME280;49382;-25.924;28.194;2023-01-15T03:42:30;85438.27;;;23.87;34.06
40948;BME280;49382;-25.924;28.194;2023-01-15T03:44:54;85436.43;;;24.81;32.92
40948;BME280;49382;-25.924;28.194;2023-01-15T03:47:23;85439.98;;;23.95;33.88
40948;BME280;49382;-25.924;28.194;2023-01-15T03:49:48;85437.46;;;24.96;32.59
40948;BME280;49382;-25.924;28.194;2023-01-15T03:52:10;85441.74;;;24.05;33.57
40948;BME280;49382;-25.924;28.194;2023-01-15T03:54:38;85439.60;;;22.95;35.64
40948;BME280;49382;-25.924;28.194;2023-01-15T03:57:00;85447.04;;;22.78;35.80
40948;BME280;49382;-25.924;28.194;2023-01-15T03:59:25;85449.99;;;24.34;33.75
40948;BME280;49382;-25.924;28.194;2023-01-15T04:01:49;85450.59;;;23.61;34.69
40948;BME280;49382;-25.924;28.194;2023-01-15T04:04:14;85451.46;;;21.81;37.10
40948;BME280;49382;-25.924;28.194;2023-01-15T04:06:41;85458.48;;;22.70;35.93
40948;BME280;49382;-25.924;28.194;2023-01-15T04:09:07;85459.53;;;24.37;33.83
40948;BME280;49382;-25.924;28.194;2023-01-15T04:11:31;85467.21;;;24.28;33.38
40948;BME280;49382;-25.924;28.194;2023-01-15T04:13:57;85469.66;;;23.00;35.03
40948;BME280;49382;-25.924;28.194;2023-01-15T04:16:26;85474.28;;;24.23;34.30
40948;BME280;49382;-25.924;28.194;2023-01-15T04:18:48;85479.64;;;24.88;33.08
40948;BME280;49382;-25.924;28.194;2023-01-15T04:21:14;85478.01;;;23.86;34.54
40948;BME280;49382;-25.924;28.194;2023-01-15T04:23:40;85477.56;;;23.62;35.23
40948;BME280;49382;-25.924;28.194;2023-01-15T04:26:06;85480.32;;;22.54;36.26
40948;BME280;49382;-25.924;28.194;2023-01-15T04:28:32;85478.71;;;23.80;35.88
40948;BME280;49382;-25.924;28.194;2023-01-15T04:30:58;85476.44;;;22.25;37.70
40948;BME280;49382;-25.924;28.194;2023-01-15T04:33:23;85483.85;;;23.61;35.63
40948;BME280;49382;-25.924;28.194;2023-01-15T04:35:49;85487.02;;;23.47;35.02
40948;BME280;49382;-25.924;28.194;2023-01-15T04:38:15;85493.22;;;22.72;35.90
40948;BME280;49382;-25.924;28.194;2023-01-15T04:40:41;85497.74;;;22.90;35.30
40948;BME280;49382;-25.924;28.194;2023-01-15T04:43:08;85500.59;;;23.37;35.40
40948;BME280;49382;-25.924;28.194;2023-01-15T04:45:32;85504.06;;;24.04;35.77
40948;BME280;49382;-25.924;28.194;2023-01-15T04:47:58;85504.40;;;23.73;34.79
40948;BME280;49382;-25.924;28.194;2023-01-15T04:50:24;85502.52;;;23.34;35.17
40948;BME280;49382;-25.924;28.194;2023-01-15T04:52:50;85505.76;;;23.84;35.43
40948;BME280;49382;-25.924;28.194;2023-01-15T04:55:14;85507.15;;;24.16;34.43
40948;BME280;49382;-25.924;28.194;2023-01-15T04:57:40;85508.47;;;24.30;35.24
40948;BME280;49382;-25.924;28.194;2023-01-15T05:00:07;85511.92;;;24.37;34.12
40948;BME280;49382;-25.924;28.194;2023-01-15T05:02:32;85513.01;;;23.93;34.69
40948;BME280;49382;-25.924;28.194;2023-01-15T05:04:57;85513.71;;;23.03;34.88
40948;BME280;49382;-25.924;28.194;2023-01-15T05:07:23;85517.34;;;24.14;34.59
40948;BME280;49382;-25.924;28.194;2023-01-15T05:09:49;85517.40;;;25.12;35.08
40948;BME280;49382;-25.924;28.194;2023-01-15T05:12:15;85518.02;;;24.37;34.75
40948;BME280;49382;-25.924;28.194;2023-01-15T05:14:41;85520.22;;;24.64;34.63
40948;BME280;49382;-25.924;28.194;2023-01-15T05:17:06;85512.17;;;23.94;35.51
40948;BME280;49382;-25.924;28.194;2023-01-15T05:19:33;85511.19;;;24.50;35.25
40948;BME280;49382;-25.924;28.194;2023-01-15T05:21:58;85508.13;;;24.83;34.17
40948;BME280;49382;-25.924;28.194;2023-01-15T05:24:24;85505.65;;;24.28;35.29
40948;BME280;49382;-25.924;28.194;2023-01-15T05:26:50;85507.36;;;23.83;37.52
40948;BME280;49382;-25.924;28.194;2023-01-15T05:29:15;85508.62;;;24.44;35.43
40948;BME280;49382;-25.924;28.194;2023-01-15T05:31:41;85513.22;;;24.47;35.92
40948;BME280;49382;-25.924;28.194;2023-01-15T05:34:08;85512.77;;;24.58;35.55
40948;BME280;49382;-25.924;28.194;2023-01-15T05:36:33;85513.19;;;23.78;35.91
40948;BME280;49382;-25.924;28.194;2023-01-15T05:38:59;85510.29;;;25.69;33.09
40948;BME280;49382;-25.924;28.194;2023-01-15T05:41:25;85510.26;;;24.64;34.42
40948;BME280;49382;-25.924;28.194;2023-01-15T05:43:50;85505.35;;;25.83;32.74
40948;BME280;49382;-25.924;28.194;2023-01-15T05:46:16;85510.22;;;25.45;32.75
40948;BME280;49382;-25.924;28.194;2023-01-15T05:48:41;85514.39;;;26.27;34.04
40948;BME280;49382;-25.924;28.194;2023-01-15T05:51:07;85518.15;;;25.19;34.00
40948;BME280;49382;-25.924;28.194;2023-01-15T05:53:33;85515.93;;;24.41;34.49
40948;BME280;49382;-25.924;28.194;2023-01-15T05:56:01;85509.07;;;25.76;33.10
40948;BME280;49382;-25.924;28.194;2023-01-15T05:58:24;85506.05;;;25.92;33.62
40948;BME280;49382;-25.924;28.194;2023-01-15T06:00:50;85500.46;;;25.47;34.57
40948;BME280;49382;-25.924;28.194;2023-01-15T06:03:16;85503.24;;;26.22;33.49
40948;BME280;49382;-25.924;28.194;2023-01-15T06:05:42;85500.52;;;25.77;33.52
40948;BME280;49382;-25.924;28.194;2023-01-15T06:08:08;85500.15;;;25.58;35.36
40948;BME280;49382;-25.924;28.194;2023-01-15T06:10:34;85500.05;;;24.53;36.52
40948;BME280;49382;-25.924;28.194;2023-01-15T06:12:59;85503.63;;;24.24;35.92
40948;BME280;49382;-25.924;28.194;2023-01-15T06:15:26;85500.83;;;25.13;36.89
40948;BME280;49382;-25.924;28.194;2023-01-15T06:17:51;85492.68;;;24.93;35.73
40948;BME280;49382;-25.924;28.194;2023-01-15T06:20:17;85490.54;;;23.94;38.19
40948;BME280;49382;-25.924;28.194;2023-01-15T06:22:42;85496.67;;;24.35;37.54
40948;BME280;49382;-25.924;28.194;2023-01-15T06:25:08;85495.19;;;24.38;35.53
40948;BME280;49382;-25.924;28.194;2023-01-15T06:27:33;85489.98;;;25.47;34.01
40948;BME280;49382;-25.924;28.194;2023-01-15T06:29:59;85492.17;;;26.53;32.03
40948;BME280;49382;-25.924;28.194;2023-01-15T06:32:25;85488.70;;;27.26;31.80
40948;BME280;49382;-25.924;28.194;2023-01-15T06:34:50;85489.77;;;26.93;33.49
40948;BME280;49382;-25.924;28.194;2023-01-15T06:37:16;85488.78;;;26.20;32.61
40948;BME280;49382;-25.924;28.194;2023-01-15T06:39:42;85492.45;;;25.00;34.63
40948;BME280;49382;-25.924;28.194;2023-01-15T06:42:09;85494.13;;;25.80;35.04
40948;BME280;49382;-25.924;28.194;2023-01-15T06:44:34;85495.68;;;26.44;33.36
40948;BME280;49382;-25.924;28.194;2023-01-15T06:47:02;85493.16;;;27.11;32.22
40948;BME280;49382;-25.924;28.194;2023-01-15T06:49:25;85489.23;;;26.57;32.33
40948;BME280;49382;-25.924;28.194;2023-01-15T06:51:51;85485.66;;;27.27;31.34
40948;BME280;49382;-25.924;28.194;2023-01-15T06:54:16;85486.18;;;26.29;33.59
40948;BME280;49382;-25.924;28.194;2023-01-15T06:56:42;85488.00;;;25.08;34.59
40948;BME280;49382;-25.924;28.194;2023-01-15T06:59:08;85491.39;;;26.62;33.78
40948;BME280;49382;-25.924;28.194;2023-01-15T07:01:34;85490.24;;;26.32;33.74
40948;BME280;49382;-25.924;28.194;2023-01-15T07:04:00;85485.14;;;25.86;35.88
40948;BME280;49382;-25.924;28.194;2023-01-15T07:06:25;85480.96;;;26.94;33.73
40948;BME280;49382;-25.924;28.194;2023-01-15T07:08:52;85478.20;;;27.00;33.40
40948;BME280;49382;-25.924;28.194;2023-01-15T07:11:17;85483.40;;;27.73;32.19
40948;BME280;49382;-25.924;28.194;2023-01-15T07:13:43;85485.52;;;28.67;30.14
40948;BME280;49382;-25.924;28.194;2023-01-15T07:16:08;85488.75;;;28.54;29.37
40948;BME280;49382;-25.924;28.194;2023-01-15T07:18:34;85485.54;;;27.89;29.75
40948;BME280;49382;-25.924;28.194;2023-01-15T07:21:00;85481.48;;;26.98;32.43
40948;BME280;49382;-25.924;28.194;2023-01-15T07:23:27;85474.31;;;26.57;33.58
40948;BME280;49382;-25.924;28.194;2023-01-15T07:25:52;85476.64;;;28.62;30.00
40948;BME280;49382;-25.924;28.194;2023-01-15T07:28:17;85469.06;;;27.11;31.52
40948;BME280;49382;-25.924;28.194;2023-01-15T07:30:43;85468.29;;;28.02;31.28
40948;BME280;49382;-25.924;28.194;2023-01-15T07:33:09;85465.32;;;28.19;30.52
40948;BME280;49382;-25.924;28.194;2023-01-15T07:35:35;85464.44;;;28.38;31.57
40948;BME280;49382;-25.924;28.194;2023-01-15T07:38:00;85463.60;;;28.80;29.84
40948;BME280;49382;-25.924;28.194;2023-01-15T07:40:26;85462.99;;;27.97;29.26
40948;BME280;49382;-25.924;28.194;2023-01-15T07:42:52;85461.52;;;28.98;29.55
40948;BME280;49382;-25.924;28.194;2023-01-15T07:45:17;85455.09;;;27.22;30.68
40948;BME280;49382;-25.924;28.194;2023-01-15T07:47:43;85458.15;;;27.63;29.96
40948;BME280;49382;-25.924;28.194;2023-01-15T07:50:11;85456.99;;;26.40;30.48
40948;BME280;49382;-25.924;28.194;2023-01-15T07:52:35;85457.55;;;28.62;28.53
40948;BME280;49382;-25.924;28.194;2023-01-15T07:55:01;85452.84;;;28.40;27.62
40948;BME280;49382;-25.924;28.194;2023-01-15T07:57:26;85457.84;;;29.35;27.77
40948;BME280;49382;-25.924;28.194;2023-01-15T07:59:52;85453.68;;;28.85;27.10
40948;BME280;49382;-25.924;28.194;2023-01-15T08:02:18;85452.42;;;28.95;26.29
40948;BME280;49382;-25.924;28.194;2023-01-15T08:04:43;85457.57;;;29.31;26.55
40948;BME280;49382;-25.924;28.194;2023-01-15T08:07:09;85459.06;;;29.65;27.04
40948;BME280;49382;-25.924;28.194;2023-01-15T08:09:35;85454.87;;;27.07;29.03
40948;BME280;49382;-25.924;28.194;2023-01-15T08:12:02;85453.34;;;27.52;32.54
40948;BME280;49382;-25.924;28.194;2023-01-15T08:14:26;85450.47;;;27.86;31.57
40948;BME280;49382;-25.924;28.194;2023-01-15T08:16:52;85446.53;;;27.66;31.26
40948;BME280;49382;-25.924;28.194;2023-01-15T08:19:18;85451.03;;;28.14;30.87
40948;BME280;49382;-25.924;28.194;2023-01-15T08:21:44;85452.68;;;29.51;28.52
40948;BME280;49382;-25.924;28.194;2023-01-15T08:24:09;85451.26;;;29.32;27.08
40948;BME280;49382;-25.924;28.194;2023-01-15T08:26:35;85448.34;;;29.55;27.24
40948;BME280;49382;-25.924;28.194;2023-01-15T08:29:01;85448.96;;;29.15;26.54
40948;BME280;49382;-25.924;28.194;2023-01-15T08:31:27;85443.84;;;27.68;28.57
40948;BME280;49382;-25.924;28.194;2023-01-15T08:33:53;85444.84;;;28.12;27.38
40948;BME280;49382;-25.924;28.194;2023-01-15T08:36:18;85436.35;;;27.03;27.89
40948;BME280;49382;-25.924;28.194;2023-01-15T08:38:44;85439.37;;;27.66;27.18
40948;BME280;49382;-25.924;28.194;2023-01-15T08:41:10;85435.67;;;27.51;27.21
40948;BME280;49382;-25.924;28.194;2023-01-15T08:43:35;85437.10;;;28.24;27.51
40948;BME280;49382;-25.924;28.194;2023-01-15T08:46:04;85435.50;;;28.26;27.07
40948;BME280;49382;-25.924;28.194;2023-01-15T08:48:28;85430.01;;;27.45;28.63
40948;BME280;49382;-25.924;28.194;2023-01-15T08:50:53;85429.18;;;27.24;31.06
40948;BME280;49382;-25.924;28.194;2023-01-15T08:53:19;85425.69;;;27.91;28.08
40948;BME280;49382;-25.924;28.194;2023-01-15T08:55:44;85423.56;;;27.85;28.47
40948;BME280;49382;-25.924;28.194;2023-01-15T08:58:10;85418.33;;;28.23;30.92
40948;BME280;49382;-25.924;28.194;2023-01-15T09:00:36;85412.03;;;27.64;30.68
40948;BME280;49382;-25.924;28.194;2023-01-15T09:03:01;85412.14;;;28.17;31.09
40948;BME280;49382;-25.924;28.194;2023-01-15T09:05:27;85410.55;;;28.61;28.23
40948;BME280;49382;-25.924;28.194;2023-01-15T09:07:53;85411.31;;;28.79;29.10
40948;BME280;49382;-25.924;28.194;2023-01-15T09:10:19;85409.75;;;28.00;33.45
40948;BME280;49382;-25.924;28.194;2023-01-15T09:12:44;85406.05;;;28.48;31.24
40948;BME280;49382;-25.924;28.194;2023-01-15T09:15:11;85405.98;;;27.99;33.13
40948;BME280;49382;-25.924;28.194;2023-01-15T09:17:36;85404.69;;;28.27;32.67
40948;BME280;49382;-25.924;28.194;2023-01-15T09:20:02;85406.02;;;29.51;31.19
40948;BME280;49382;-25.924;28.194;2023-01-15T09:22:27;85405.09;;;29.65;30.61
40948;BME280;49382;-25.924;28.194;2023-01-15T09:24:53;85402.33;;;28.24;29.69
40948;BME280;49382;-25.924;28.194;2023-01-15T09:27:19;85400.56;;;29.18;28.95
40948;BME280;49382;-25.924;28.194;2023-01-15T09:29:45;85396.91;;;28.89;27.77
40948;BME280;49382;-25.924;28.194;2023-01-15T09:32:11;85398.43;;;28.05;28.11
40948;BME280;49382;-25.924;28.194;2023-01-15T09:34:36;85399.28;;;28.38;29.54
40948;BME280;49382;-25.924;28.194;2023-01-15T09:37:02;85392.05;;;29.16;28.68
40948;BME280;49382;-25.924;28.194;2023-01-15T09:39:27;85387.19;;;27.90;31.02
40948;BME280;49382;-25.924;28.194;2023-01-15T09:42:04;85383.67;;;28.02;29.56
40948;BME280;49382;-25.924;28.194;2023-01-15T09:44:26;85378.34;;;27.28;28.33
40948;BME280;49382;-25.924;28.194;2023-01-15T09:46:52;85375.48;;;27.80;29.58
40948;BME280;49382;-25.924;28.194;2023-01-15T09:49:18;85375.14;;;27.69;28.80
40948;BME280;49382;-25.924;28.194;2023-01-15T09:51:42;85371.05;;;28.30;30.14
40948;BME280;49382;-25.924;28.194;2023-01-15T09:54:15;85370.71;;;29.15;29.07
40948;BME280;49382;-25.924;28.194;2023-01-15T09:56:30;85370.53;;;29.51;29.35
40948;BME280;49382;-25.924;28.194;2023-01-15T09:58:54;85364.94;;;29.53;28.98
40948;BME280;49382;-25.924;28.194;2023-01-15T10:01:23;85357.28;;;30.09;29.06
40948;BME280;49382;-25.924;28.194;2023-01-15T10:03:48;85365.89;;;29.53;29.46
40948;BME280;49382;-25.924;28.194;2023-01-15T10:06:14;85362.32;;;28.72;27.08
40948;BME280;49382;-25.924;28.194;2023-01-15T10:08:38;85362.88;;;28.48;27.99
40948;BME280;49382;-25.924;28.194;2023-01-15T10:11:04;85357.82;;;28.41;27.13
40948;BME280;49382;-25.924;28.194;2023-01-15T10:13:34;85356.78;;;27.93;26.45
40948;BME280;49382;-25.924;28.194;2023-01-15T10:15:53;85355.97;;;29.38;25.79
40948;BME280;49382;-25.924;28.194;2023-01-15T10:18:21;85353.66;;;29.33;24.59
40948;BME280;49382;-25.924;28.194;2023-01-15T10:23:20;85348.52;;;28.87;26.83
40948;BME280;49382;-25.924;28.194;2023-01-15T10:25:41;85347.83;;;29.29;26.27
40948;BME280;49382;-25.924;28.194;2023-01-15T10:28:09;85341.95;;;30.03;26.35
40948;BME280;49382;-25.924;28.194;2023-01-15T10:30:33;85336.00;;;29.52;25.67
40948;BME280;49382;-25.924;28.194;2023-01-15T10:32:55;85335.86;;;29.62;24.70
40948;BME280;49382;-25.924;28.194;2023-01-15T10:35:27;85330.61;;;29.80;25.66
40948;BME280;49382;-25.924;28.194;2023-01-15T10:37:49;85326.10;;;28.46;24.33
40948;BME280;49382;-25.924;28.194;2023-01-15T10:40:17;85323.76;;;28.58;25.44
40948;BME280;49382;-25.924;28.194;2023-01-15T10:42:40;85318.17;;;29.62;25.87
40948;BME280;49382;-25.924;28.194;2023-01-15T10:45:09;85319.96;;;28.52;26.18
40948;BME280;49382;-25.924;28.194;2023-01-15T10:47:31;85321.36;;;27.78;27.31
40948;BME280;49382;-25.924;28.194;2023-01-15T10:49:53;85321.20;;;29.42;26.58
40948;BME280;49382;-25.924;28.194;2023-01-15T10:52:24;85322.46;;;29.06;25.32
40948;BME280;49382;-25.924;28.194;2023-01-15T10:54:52;85312.20;;;28.69;24.88
40948;BME280;49382;-25.924;28.194;2023-01-15T10:57:14;85313.05;;;28.45;25.16
40948;BME280;49382;-25.924;28.194;2023-01-15T10:59:41;85317.12;;;28.20;24.27
40948;BME280;49382;-25.924;28.194;2023-01-15T11:02:02;85311.98;;;28.88;24.80
40948;BME280;49382;-25.924;28.194;2023-01-15T11:04:30;85305.48;;;28.30;24.82
40948;BME280;49382;-25.924;28.194;2023-01-15T11:06:53;85305.27;;;28.95;25.13
40948;BME280;49382;-25.924;28.194;2023-01-15T11:09:20;85300.27;;;28.15;24.23
40948;BME280;49382;-25.924;28.194;2023-01-15T11:11:47;85285.03;;;29.07;24.30
40948;BME280;49382;-25.924;28.194;2023-01-15T11:14:15;85285.68;;;29.63;25.41
40948;BME280;49382;-25.924;28.194;2023-01-15T11:16:36;85275.78;;;29.07;23.97
40948;BME280;49382;-25.924;28.194;2023-01-15T11:19:02;85275.39;;;29.56;24.03
40948;BME280;49382;-25.924;28.194;2023-01-15T11:21:28;85278.10;;;29.45;25.97
40948;BME280;49382;-25.924;28.194;2023-01-15T11:23:55;85278.89;;;28.91;25.50
40948;BME280;49382;-25.924;28.194;2023-01-15T11:26:21;85279.31;;;28.73;25.08
40948;BME280;49382;-25.924;28.194;2023-01-15T11:28:45;85274.93;;;28.74;24.62
40948;BME280;49382;-25.924;28.194;2023-01-15T11:31:11;85265.90;;;29.07;24.36
40948;BME280;49382;-25.924;28.194;2023-01-15T11:33:37;85264.87;;;29.54;23.30
40948;BME280;49382;-25.924;28.194;2023-01-15T11:36:04;85262.35;;;28.50;25.48
40948;BME280;49382;-25.924;28.194;2023-01-15T11:38:29;85259.46;;;29.06;24.45
40948;BME280;49382;-25.924;28.194;2023-01-15T11:40:54;85260.73;;;28.78;24.92
40948;BME280;49382;-25.924;28.194;2023-01-15T11:43:21;85259.02;;;29.65;24.02
40948;BME280;49382;-25.924;28.194;2023-01-15T11:45:48;85250.39;;;27.85;24.85
40948;BME280;49382;-25.924;28.194;2023-01-15T11:48:15;85241.90;;;29.06;24.98
40948;BME280;49382;-25.924;28.194;2023-01-15T11:50:38;85243.66;;;29.82;25.34
40948;BME280;49382;-25.924;28.194;2023-01-15T11:53:01;85240.07;;;29.15;25.60
40948;BME280;49382;-25.924;28.194;2023-01-15T11:55:27;85237.53;;;28.91;25.15
40948;BME280;49382;-25.924;28.194;2023-01-15T11:57:53;85233.95;;;29.84;23.87
40948;BME280;49382;-25.924;28.194;2023-01-15T12:00:21;85233.60;;;29.23;22.97
40948;BME280;49382;-25.924;28.194;2023-01-15T12:02:45;85228.00;;;30.41;21.93
40948;BME280;49382;-25.924;28.194;2023-01-15T12:05:15;85223.00;;;29.98;23.39
40948;BME280;49382;-25.924;28.194;2023-01-15T12:07:38;85216.39;;;28.45;24.84
40948;BME280;49382;-25.924;28.194;2023-01-15T12:10:10;85217.03;;;29.37;23.72
40948;BME280;49382;-25.924;28.194;2023-01-15T12:12:34;85220.54;;;29.39;23.40
40948;BME280;49382;-25.924;28.194;2023-01-15T12:15:08;85216.13;;;29.55;23.26
40948;BME280;49382;-25.924;28.194;2023-01-15T12:17:30;85214.97;;;29.06;23.21
40948;BME280;49382;-25.924;28.194;2023-01-15T12:19:49;85211.42;;;28.51;24.44
40948;BME280;49382;-25.924;28.194;2023-01-15T12:22:20;85210.93;;;29.09;24.11
40948;BME280;49382;-25.924;28.194;2023-01-15T12:24:46;85206.08;;;28.72;23.42
40948;BME280;49382;-25.924;28.194;2023-01-15T12:27:13;85199.70;;;29.39;23.30
40948;BME280;49382;-25.924;28.194;2023-01-15T12:29:30;85197.87;;;29.83;22.78
40948;BME280;49382;-25.924;28.194;2023-01-15T12:31:57;85204.18;;;29.54;21.91
40948;BME280;49382;-25.924;28.194;2023-01-15T12:34:22;85199.15;;;29.47;22.89